sensor_id;sensor_type;location;lat;lon;timestamp;P1;durP1;ratioP1;P2;durP2;ratioP2
61911;SDS011;49973;52.084;5.412;2022-09-17T00:01:40;8.57;;;1.57;;
61911;SDS011;49973;52.084;5.412;2022-09-17T00:04:08;4.97;;;1.40;;
61911;SDS011;49973;52.084;5.412;2022-09-17T00:06:37;8.50;;;1.80;;
61911;SDS011;49973;52.084;5.412;2022-09-17T00:09:08;16.87;;;2.10;;
61911;SDS011;49973;52.084;5.412;2022-09-17T00:11:37;12.20;;;2.20;;
61911;SDS011;49973;52.084;5.412;2022-09-17T00:14:09;11.13;;;1.90;;
61911;SDS011;49973;52.084;5.412;2022-09-17T00:16:42;8.83;;;1.90;;
61911;SDS011;49973;52.084;5.412;2022-09-17T00:19:12;9.70;;;1.70;;
61911;SDS011;49973;52.084;5.412;2022-09-17T00:21:42;6.63;;;1.40;;
61911;SDS011;49973;52.084;5.412;2022-09-17T00:24:13;5.00;;;1.33;;
61911;SDS011;49973;52.084;5.412;2022-09-17T00:26:43;5.77;;;1.40;;
61911;SDS011;49973;52.084;5.412;2022-09-17T00:29:11;8.33;;;1.53;;
61911;SDS011;49973;52.084;5.412;2022-09-17T00:31:40;10.20;;;1.47;;
61911;SDS011;49973;52.084;5.412;2022-09-17T00:34:09;5.10;;;1.47;;
61911;SDS011;49973;52.084;5.412;2022-09-17T00:36:38;5.33;;;1.30;;
61911;SDS011;49973;52.084;5.412;2022-09-17T00:39:07;8.37;;;1.87;;
61911;SDS011;49973;52.084;5.412;2022-09-17T00:41:38;9.30;;;1.60;;
61911;SDS011;49973;52.084;5.412;2022-09-17T00:47:10;10.73;;;1.53;;
61911;SDS011;49973;52.084;5.412;2022-09-17T00:49:42;9.43;;;1.73;;
61911;SDS011;49973;52.084;5.412;2022-09-17T00:52:12;8.93;;;1.57;;
61911;SDS011;49973;52.084;5.412;2022-09-17T00:54:43;8.87;;;1.47;;
61911;SDS011;49973;52.084;5.412;2022-09-17T00:57:18;12.17;;;1.87;;
61911;SDS011;49973;52.084;5.412;2022-09-17T00:59:47;8.93;;;1.70;;
61911;SDS011;49973;52.084;5.412;2022-09-17T01:02:16;6.83;;;1.30;;
61911;SDS011;49973;52.084;5.412;2022-09-17T01:04:44;13.40;;;1.73;;
61911;SDS011;49973;52.084;5.412;2022-09-17T01:07:16;8.37;;;1.80;;
61911;SDS011;49973;52.084;5.412;2022-09-17T01:10:05;7.53;;;1.53;;
61911;SDS011;49973;52.084;5.412;2022-09-17T01:12:49;10.00;;;2.03;;
61911;SDS011;49973;52.084;5.412;2022-09-17T01:15:29;10.40;;;1.67;;
61911;SDS011;49973;52.084;5.412;2022-09-17T01:18:06;11.60;;;2.13;;
61911;SDS011;49973;52.084;5.412;2022-09-17T01:26:49;11.27;;;1.97;;
61911;SDS011;49973;52.084;5.412;2022-09-17T01:29:51;9.57;;;2.90;;
61911;SDS011;49973;52.084;5.412;2022-09-17T01:32:33;4.93;;;1.90;;
61911;SDS011;49973;52.084;5.412;2022-09-17T01:35:07;4.87;;;1.10;;
61911;SDS011;49973;52.084;5.412;2022-09-17T01:37:45;12.37;;;1.63;;
61911;SDS011;49973;52.084;5.412;2022-09-17T01:40:22;8.77;;;1.40;;
61911;SDS011;49973;52.084;5.412;2022-09-17T01:42:56;7.10;;;1.20;;
61911;SDS011;49973;52.084;5.412;2022-09-17T01:45:29;7.40;;;1.80;;
61911;SDS011;49973;52.084;5.412;2022-09-17T01:48:06;7.73;;;1.53;;
61911;SDS011;49973;52.084;5.412;2022-09-17T01:50:39;14.50;;;1.43;;
61911;SDS011;49973;52.084;5.412;2022-09-17T01:53:13;10.60;;;1.53;;
61911;SDS011;49973;52.084;5.412;2022-09-17T01:55:45;7.37;;;1.27;;
61911;SDS011;49973;52.084;5.412;2022-09-17T01:58:19;6.20;;;1.37;;
61911;SDS011;49973;52.084;5.412;2022-09-17T02:00:53;9.37;;;1.67;;
61911;SDS011;49973;52.084;5.412;2022-09-17T02:03:28;3.00;;;1.17;;
61911;SDS011;49973;52.084;5.412;2022-09-17T02:05:59;3.37;;;1.20;;
61911;SDS011;49973;52.084;5.412;2022-09-17T02:08:34;6.30;;;1.10;;
61911;SDS011;49973;52.084;5.412;2022-09-17T02:11:06;8.80;;;1.30;;
61911;SDS011;49973;52.084;5.412;2022-09-17T02:13:37;6.37;;;1.40;;
61911;SDS011;49973;52.084;5.412;2022-09-17T02:16:11;7.87;;;1.53;;
61911;SDS011;49973;52.084;5.412;2022-09-17T02:18:45;15.20;;;1.43;;
61911;SDS011;49973;52.084;5.412;2022-09-17T02:21:23;8.80;;;1.40;;
61911;SDS011;49973;52.084;5.412;2022-09-17T02:23:58;2.97;;;1.20;;
61911;SDS011;49973;52.084;5.412;2022-09-17T02:26:34;7.67;;;1.57;;
61911;SDS011;49973;52.084;5.412;2022-09-17T02:29:06;10.93;;;1.30;;
61911;SDS011;49973;52.084;5.412;2022-09-17T02:31:39;5.87;;;1.47;;
61911;SDS011;49973;52.084;5.412;2022-09-17T02:34:09;7.60;;;1.63;;
61911;SDS011;49973;52.084;5.412;2022-09-17T02:36:38;5.33;;;1.20;;
61911;SDS011;49973;52.084;5.412;2022-09-17T02:39:07;4.80;;;1.10;;
61911;SDS011;49973;52.084;5.412;2022-09-17T02:41:39;4.73;;;0.97;;
61911;SDS011;49973;52.084;5.412;2022-09-17T02:44:17;7.23;;;0.87;;
61911;SDS011;49973;52.084;5.412;2022-09-17T02:46:57;5.30;;;1.43;;
61911;SDS011;49973;52.084;5.412;2022-09-17T02:49:43;7.20;;;1.30;;
61911;SDS011;49973;52.084;5.412;2022-09-17T02:52:38;3.87;;;1.10;;
61911;SDS011;49973;52.084;5.412;2022-09-17T02:55:16;10.27;;;1.13;;
61911;SDS011;49973;52.084;5.412;2022-09-17T02:57:51;6.83;;;1.10;;
61911;SDS011;49973;52.084;5.412;2022-09-17T03:00:25;5.67;;;1.13;;
61911;SDS011;49973;52.084;5.412;2022-09-17T03:02:55;8.37;;;0.97;;
61911;SDS011;49973;52.084;5.412;2022-09-17T03:05:28;7.67;;;1.30;;
61911;SDS011;49973;52.084;5.412;2022-09-17T03:07:57;9.97;;;1.00;;
61911;SDS011;49973;52.084;5.412;2022-09-17T03:10:26;13.93;;;1.47;;
61911;SDS011;49973;52.084;5.412;2022-09-17T03:12:59;2.43;;;1.00;;
61911;SDS011;49973;52.084;5.412;2022-09-17T03:15:27;5.93;;;1.20;;
61911;SDS011;49973;52.084;5.412;2022-09-17T03:17:56;6.57;;;1.50;;
61911;SDS011;49973;52.084;5.412;2022-09-17T03:20:25;5.90;;;1.20;;
61911;SDS011;49973;52.084;5.412;2022-09-17T03:22:54;5.83;;;1.40;;
61911;SDS011;49973;52.084;5.412;2022-09-17T03:25:23;6.63;;;1.20;;
61911;SDS011;49973;52.084;5.412;2022-09-17T03:27:51;6.63;;;1.40;;
61911;SDS011;49973;52.084;5.412;2022-09-17T03:30:20;7.90;;;1.70;;
61911;SDS011;49973;52.084;5.412;2022-09-17T03:32:48;5.43;;;1.30;;
61911;SDS011;49973;52.084;5.412;2022-09-17T03:35:17;3.20;;;1.30;;
61911;SDS011;49973;52.084;5.412;2022-09-17T03:37:45;6.30;;;1.30;;
61911;SDS011;49973;52.084;5.412;2022-09-17T03:40:15;7.87;;;1.37;;
61911;SDS011;49973;52.084;5.412;2022-09-17T03:42:44;5.50;;;1.40;;
61911;SDS011;49973;52.084;5.412;2022-09-17T03:45:13;9.63;;;1.70;;
61911;SDS011;49973;52.084;5.412;2022-09-17T03:47:41;5.37;;;0.83;;
61911;SDS011;49973;52.084;5.412;2022-09-17T03:50:09;10.90;;;1.27;;
61911;SDS011;49973;52.084;5.412;2022-09-17T03:52:38;15.77;;;2.00;;
61911;SDS011;49973;52.084;5.412;2022-09-17T03:55:06;5.63;;;1.77;;
61911;SDS011;49973;52.084;5.412;2022-09-17T03:57:36;10.97;;;1.67;;
61911;SDS011;49973;52.084;5.412;2022-09-17T04:00:05;5.77;;;1.97;;
61911;SDS011;49973;52.084;5.412;2022-09-17T04:02:38;10.07;;;1.60;;
61911;SDS011;49973;52.084;5.412;2022-09-17T04:05:07;9.67;;;1.30;;
61911;SDS011;49973;52.084;5.412;2022-09-17T04:07:38;5.47;;;1.37;;
61911;SDS011;49973;52.084;5.412;2022-09-17T04:10:06;3.43;;;1.27;;
61911;SDS011;49973;52.084;5.412;2022-09-17T04:12:36;8.67;;;1.40;;
61911;SDS011;49973;52.084;5.412;2022-09-17T04:15:06;7.50;;;1.23;;
61911;SDS011;49973;52.084;5.412;2022-09-17T04:17:35;4.63;;;1.30;;
61911;SDS011;49973;52.084;5.412;2022-09-17T04:20:03;4.67;;;1.27;;
61911;SDS011;49973;52.084;5.412;2022-09-17T04:22:33;9.33;;;1.30;;
61911;SDS011;49973;52.084;5.412;2022-09-17T04:25:01;8.23;;;1.20;;
61911;SDS011;49973;52.084;5.412;2022-09-17T04:27:29;9.97;;;1.17;;
61911;SDS011;49973;52.084;5.412;2022-09-17T04:29:59;6.50;;;1.23;;
61911;SDS011;49973;52.084;5.412;2022-09-17T04:32:28;3.20;;;1.30;;
61911;SDS011;49973;52.084;5.412;2022-09-17T04:34:56;6.43;;;0.90;;
61911;SDS011;49973;52.084;5.412;2022-09-17T04:37:25;2.07;;;0.90;;
61911;SDS011;49973;52.084;5.412;2022-09-17T04:39:53;4.80;;;0.93;;
61911;SDS011;49973;52.084;5.412;2022-09-17T04:42:22;6.73;;;1.30;;
61911;SDS011;49973;52.084;5.412;2022-09-17T04:44:50;6.90;;;0.83;;
61911;SDS011;49973;52.084;5.412;2022-09-17T04:47:20;5.47;;;0.93;;
61911;SDS011;49973;52.084;5.412;2022-09-17T04:49:49;8.03;;;1.13;;
61911;SDS011;49973;52.084;5.412;2022-09-17T04:52:17;6.73;;;1.07;;
61911;SDS011;49973;52.084;5.412;2022-09-17T04:54:46;6.17;;;1.40;;
61911;SDS011;49973;52.084;5.412;2022-09-17T04:57:14;9.33;;;1.20;;
61911;SDS011;49973;52.084;5.412;2022-09-17T04:59:42;5.67;;;1.07;;
61911;SDS011;49973;52.084;5.412;2022-09-17T05:02:11;5.50;;;1.10;;
61911;SDS011;49973;52.084;5.412;2022-09-17T05:04:41;8.03;;;1.13;;
61911;SDS011;49973;52.084;5.412;2022-09-17T05:07:09;2.60;;;0.93;;
61911;SDS011;49973;52.084;5.412;2022-09-17T05:09:40;6.43;;;1.23;;
61911;SDS011;49973;52.084;5.412;2022-09-17T05:12:08;7.10;;;1.03;;
61911;SDS011;49973;52.084;5.412;2022-09-17T05:14:37;1.50;;;0.70;;
61911;SDS011;49973;52.084;5.412;2022-09-17T05:17:05;3.30;;;0.87;;
61911;SDS011;49973;52.084;5.412;2022-09-17T05:19:33;4.17;;;1.00;;
61911;SDS011;49973;52.084;5.412;2022-09-17T05:22:03;3.10;;;0.77;;
61911;SDS011;49973;52.084;5.412;2022-09-17T05:24:32;4.20;;;1.00;;
61911;SDS011;49973;52.084;5.412;2022-09-17T05:27:04;3.87;;;1.30;;
61911;SDS011;49973;52.084;5.412;2022-09-17T05:29:33;6.30;;;1.37;;
61911;SDS011;49973;52.084;5.412;2022-09-17T05:32:02;2.33;;;0.87;;
61911;SDS011;49973;52.084;5.412;2022-09-17T05:34:31;3.00;;;0.70;;
61911;SDS011;49973;52.084;5.412;2022-09-17T05:37:00;2.43;;;0.87;;
61911;SDS011;49973;52.084;5.412;2022-09-17T05:39:30;6.60;;;1.10;;
61911;SDS011;49973;52.084;5.412;2022-09-17T05:41:58;5.83;;;1.20;;
61911;SDS011;49973;52.084;5.412;2022-09-17T05:44:27;3.40;;;1.00;;
61911;SDS011;49973;52.084;5.412;2022-09-17T05:46:55;9.30;;;1.43;;
61911;SDS011;49973;52.084;5.412;2022-09-17T05:49:24;8.23;;;1.40;;
61911;SDS011;49973;52.084;5.412;2022-09-17T05:51:53;1.40;;;0.67;;
61911;SDS011;49973;52.084;5.412;2022-09-17T05:54:21;6.97;;;1.10;;
61911;SDS011;49973;52.084;5.412;2022-09-17T05:56:52;4.60;;;0.60;;
61911;SDS011;49973;52.084;5.412;2022-09-17T05:59:21;2.50;;;0.90;;
61911;SDS011;49973;52.084;5.412;2022-09-17T06:01:49;4.10;;;0.90;;
61911;SDS011;49973;52.084;5.412;2022-09-17T06:04:18;3.07;;;0.57;;
61911;SDS011;49973;52.084;5.412;2022-09-17T06:06:46;4.80;;;0.80;;
61911;SDS011;49973;52.084;5.412;2022-09-17T06:09:15;2.97;;;0.70;;
61911;SDS011;49973;52.084;5.412;2022-09-17T06:11:43;8.20;;;0.90;;
61911;SDS011;49973;52.084;5.412;2022-09-17T06:14:13;6.30;;;0.83;;
61911;SDS011;49973;52.084;5.412;2022-09-17T06:16:42;5.80;;;1.03;;
61911;SDS011;49973;52.084;5.412;2022-09-17T06:19:10;3.90;;;1.27;;
61911;SDS011;49973;52.084;5.412;2022-09-17T06:21:39;6.27;;;1.03;;
61911;SDS011;49973;52.084;5.412;2022-09-17T06:24:07;2.53;;;0.80;;
61911;SDS011;49973;52.084;5.412;2022-09-17T06:26:36;0.97;;;0.63;;
61911;SDS011;49973;52.084;5.412;2022-09-17T06:29:05;3.93;;;0.57;;
61911;SDS011;49973;52.084;5.412;2022-09-17T06:31:35;4.13;;;1.23;;
61911;SDS011;49973;52.084;5.412;2022-09-17T06:34:03;4.43;;;0.90;;
61911;SDS011;49973;52.084;5.412;2022-09-17T06:36:32;3.60;;;1.07;;
61911;SDS011;49973;52.084;5.412;2022-09-17T06:39:00;5.00;;;0.97;;
61911;SDS011;49973;52.084;5.412;2022-09-17T06:41:29;0.87;;;0.63;;
61911;SDS011;49973;52.084;5.412;2022-09-17T06:43:57;4.00;;;0.83;;
61911;SDS011;49973;52.084;5.412;2022-09-17T06:46:27;5.37;;;1.27;;
61911;SDS011;49973;52.084;5.412;2022-09-17T06:48:57;3.03;;;0.60;;
61911;SDS011;49973;52.084;5.412;2022-09-17T06:51:25;7.07;;;1.40;;
61911;SDS011;49973;52.084;5.412;2022-09-17T06:53:54;5.57;;;1.10;;
61911;SDS011;49973;52.084;5.412;2022-09-17T06:56:22;3.20;;;1.27;;
61911;SDS011;49973;52.084;5.412;2022-09-17T06:58:50;7.60;;;1.10;;
61911;SDS011;49973;52.084;5.412;2022-09-17T07:01:20;4.00;;;0.90;;
61911;SDS011;49973;52.084;5.412;2022-09-17T07:03:49;7.40;;;1.07;;
61911;SDS011;49973;52.084;5.412;2022-09-17T07:06:18;6.80;;;0.93;;
61911;SDS011;49973;52.084;5.412;2022-09-17T07:08:47;5.90;;;1.83;;
61911;SDS011;49973;52.084;5.412;2022-09-17T07:11:16;4.63;;;0.73;;
61911;SDS011;49973;52.084;5.412;2022-09-17T07:13:44;3.47;;;1.10;;
61911;SDS011;49973;52.084;5.412;2022-09-17T07:16:12;4.07;;;0.70;;
61911;SDS011;49973;52.084;5.412;2022-09-17T07:18:41;5.87;;;1.00;;
61911;SDS011;49973;52.084;5.412;2022-09-17T07:21:09;1.47;;;0.70;;
61911;SDS011;49973;52.084;5.412;2022-09-17T07:23:39;5.93;;;0.80;;
61911;SDS011;49973;52.084;5.412;2022-09-17T07:26:11;6.33;;;0.77;;
61911;SDS011;49973;52.084;5.412;2022-09-17T07:28:41;6.80;;;1.10;;
61911;SDS011;49973;52.084;5.412;2022-09-17T07:31:10;3.07;;;0.53;;
61911;SDS011;49973;52.084;5.412;2022-09-17T07:33:42;5.23;;;0.70;;
61911;SDS011;49973;52.084;5.412;2022-09-17T07:36:12;4.07;;;0.80;;
61911;SDS011;49973;52.084;5.412;2022-09-17T07:38:44;3.23;;;0.60;;
61911;SDS011;49973;52.084;5.412;2022-09-17T07:41:14;1.10;;;0.60;;
61911;SDS011;49973;52.084;5.412;2022-09-17T07:43:44;6.30;;;1.10;;
61911;SDS011;49973;52.084;5.412;2022-09-17T07:46:13;6.20;;;1.27;;
61911;SDS011;49973;52.084;5.412;2022-09-17T07:48:42;4.03;;;1.03;;
61911;SDS011;49973;52.084;5.412;2022-09-17T07:51:15;2.73;;;0.83;;
61911;SDS011;49973;52.084;5.412;2022-09-17T07:53:46;4.53;;;0.93;;
61911;SDS011;49973;52.084;5.412;2022-09-17T07:56:16;1.70;;;0.47;;
61911;SDS011;49973;52.084;5.412;2022-09-17T07:58:44;5.80;;;0.90;;
61911;SDS011;49973;52.084;5.412;2022-09-17T08:01:13;7.37;;;1.10;;
61911;SDS011;49973;52.084;5.412;2022-09-17T08:03:46;6.67;;;0.80;;
61911;SDS011;49973;52.084;5.412;2022-09-17T08:06:16;2.27;;;0.60;;
61911;SDS011;49973;52.084;5.412;2022-09-17T08:08:48;3.13;;;0.70;;
61911;SDS011;49973;52.084;5.412;2022-09-17T08:11:17;5.43;;;0.97;;
61911;SDS011;49973;52.084;5.412;2022-09-17T08:14:08;26.83;;;1.47;;
61911;SDS011;49973;52.084;5.412;2022-09-17T08:16:38;2.57;;;1.27;;
61911;SDS011;49973;52.084;5.412;2022-09-17T08:19:07;1.70;;;1.10;;
61911;SDS011;49973;52.084;5.412;2022-09-17T08:21:36;4.60;;;1.07;;
61911;SDS011;49973;52.084;5.412;2022-09-17T08:24:06;3.43;;;0.80;;
61911;SDS011;49973;52.084;5.412;2022-09-17T08:26:34;4.03;;;0.93;;
61911;SDS011;49973;52.084;5.412;2022-09-17T08:29:04;1.80;;;0.47;;
61911;SDS011;49973;52.084;5.412;2022-09-17T08:31:33;9.40;;;1.40;;
61911;SDS011;49973;52.084;5.412;2022-09-17T08:34:05;5.53;;;0.93;;
61911;SDS011;49973;52.084;5.412;2022-09-17T08:36:34;1.57;;;0.70;;
61911;SDS011;49973;52.084;5.412;2022-09-17T08:39:03;2.77;;;0.70;;
61911;SDS011;49973;52.084;5.412;2022-09-17T08:41:36;2.43;;;0.70;;
61911;SDS011;49973;52.084;5.412;2022-09-17T08:44:21;0.80;;;0.60;;
61911;SDS011;49973;52.084;5.412;2022-09-17T08:46:52;5.60;;;0.77;;
61911;SDS011;49973;52.084;5.412;2022-09-17T08:49:33;2.60;;;0.47;;
61911;SDS011;49973;52.084;5.412;2022-09-17T08:52:16;4.47;;;0.57;;
61911;SDS011;49973;52.084;5.412;2022-09-17T08:55:13;1.80;;;0.50;;
61911;SDS011;49973;52.084;5.412;2022-09-17T08:57:50;5.93;;;0.67;;
61911;SDS011;49973;52.084;5.412;2022-09-17T09:00:24;3.60;;;0.50;;
61911;SDS011;49973;52.084;5.412;2022-09-17T09:03:03;2.57;;;0.70;;
61911;SDS011;49973;52.084;5.412;2022-09-17T09:05:43;1.50;;;0.47;;
61911;SDS011;49973;52.084;5.412;2022-09-17T09:08:15;2.30;;;0.40;;
61911;SDS011;49973;52.084;5.412;2022-09-17T09:10:49;3.50;;;0.87;;
61911;SDS011;49973;52.084;5.412;2022-09-17T09:13:23;1.17;;;0.60;;
61911;SDS011;49973;52.084;5.412;2022-09-17T09:15:56;2.13;;;0.60;;
61911;SDS011;49973;52.084;5.412;2022-09-17T09:18:28;2.90;;;0.50;;
61911;SDS011;49973;52.084;5.412;2022-09-17T09:21:00;2.03;;;0.67;;
61911;SDS011;49973;52.084;5.412;2022-09-17T09:23:41;5.90;;;0.70;;
61911;SDS011;49973;52.084;5.412;2022-09-17T09:26:19;5.80;;;1.03;;
61911;SDS011;49973;52.084;5.412;2022-09-17T09:28:58;4.30;;;0.93;;
61911;SDS011;49973;52.084;5.412;2022-09-17T09:31:35;3.80;;;0.60;;
61911;SDS011;49973;52.084;5.412;2022-09-17T09:34:11;6.33;;;0.93;;
61911;SDS011;49973;52.084;5.412;2022-09-17T09:36:41;3.20;;;0.80;;
61911;SDS011;49973;52.084;5.412;2022-09-17T09:39:13;5.00;;;0.90;;
61911;SDS011;49973;52.084;5.412;2022-09-17T09:41:48;5.60;;;0.93;;
61911;SDS011;49973;52.084;5.412;2022-09-17T09:44:23;2.03;;;0.63;;
61911;SDS011;49973;52.084;5.412;2022-09-17T09:46:56;2.60;;;0.80;;
61911;SDS011;49973;52.084;5.412;2022-09-17T09:49:42;8.40;;;1.27;;
61911;SDS011;49973;52.084;5.412;2022-09-17T09:52:22;4.63;;;1.00;;
61911;SDS011;49973;52.084;5.412;2022-09-17T09:55:13;4.33;;;1.13;;
61911;SDS011;49973;52.084;5.412;2022-09-17T09:57:54;5.20;;;1.20;;
61911;SDS011;49973;52.084;5.412;2022-09-17T10:00:30;4.10;;;0.50;;
61911;SDS011;49973;52.084;5.412;2022-09-17T10:03:04;6.40;;;1.93;;
61911;SDS011;49973;52.084;5.412;2022-09-17T10:05:39;3.00;;;0.53;;
61911;SDS011;49973;52.084;5.412;2022-09-17T10:08:20;11.47;;;1.33;;
61911;SDS011;49973;52.084;5.412;2022-09-17T10:10:52;1.97;;;0.70;;
61911;SDS011;49973;52.084;5.412;2022-09-17T10:13:25;1.60;;;0.57;;
61911;SDS011;49973;52.084;5.412;2022-09-17T10:15:56;3.13;;;0.50;;
61911;SDS011;49973;52.084;5.412;2022-09-17T10:18:34;1.80;;;0.70;;
61911;SDS011;49973;52.084;5.412;2022-09-17T10:21:03;1.87;;;0.53;;
61911;SDS011;49973;52.084;5.412;2022-09-17T10:23:32;3.17;;;0.50;;
61911;SDS011;49973;52.084;5.412;2022-09-17T10:26:05;2.97;;;0.70;;
61911;SDS011;49973;52.084;5.412;2022-09-17T10:28:42;1.07;;;0.53;;
61911;SDS011;49973;52.084;5.412;2022-09-17T10:31:16;1.73;;;0.60;;
61911;SDS011;49973;52.084;5.412;2022-09-17T10:33:52;7.40;;;1.13;;
61911;SDS011;49973;52.084;5.412;2022-09-17T10:36:38;2.20;;;0.80;;
61911;SDS011;49973;52.084;5.412;2022-09-17T10:41:57;6.43;;;1.20;;
61911;SDS011;49973;52.084;5.412;2022-09-17T10:44:28;6.73;;;0.83;;
61911;SDS011;49973;52.084;5.412;2022-09-17T10:47:02;5.43;;;0.80;;
61911;SDS011;49973;52.084;5.412;2022-09-17T10:49:34;4.50;;;0.70;;
61911;SDS011;49973;52.084;5.412;2022-09-17T10:52:11;4.27;;;0.70;;
61911;SDS011;49973;52.084;5.412;2022-09-17T10:54:58;1.30;;;0.70;;
61911;SDS011;49973;52.084;5.412;2022-09-17T10:57:59;4.07;;;1.23;;
61911;SDS011;49973;52.084;5.412;2022-09-17T11:00:33;9.53;;;1.23;;
61911;SDS011;49973;52.084;5.412;2022-09-17T11:03:20;4.37;;;0.83;;
61911;SDS011;49973;52.084;5.412;2022-09-17T11:06:26;4.43;;;0.57;;
61911;SDS011;49973;52.084;5.412;2022-09-17T11:09:07;7.20;;;1.20;;
61911;SDS011;49973;52.084;5.412;2022-09-17T11:11:50;3.13;;;1.13;;
61911;SDS011;49973;52.084;5.412;2022-09-17T11:14:35;3.50;;;0.80;;
61911;SDS011;49973;52.084;5.412;2022-09-17T11:17:18;4.87;;;0.90;;
61911;SDS011;49973;52.084;5.412;2022-09-17T11:20:00;5.03;;;0.70;;
61911;SDS011;49973;52.084;5.412;2022-09-17T11:22:35;4.17;;;0.70;;
61911;SDS011;49973;52.084;5.412;2022-09-17T11:25:31;3.07;;;0.73;;
61911;SDS011;49973;52.084;5.412;2022-09-17T11:28:11;5.13;;;1.10;;
61911;SDS011;49973;52.084;5.412;2022-09-17T11:30:52;6.97;;;1.40;;
61911;SDS011;49973;52.084;5.412;2022-09-17T11:33:28;2.13;;;0.87;;
61911;SDS011;49973;52.084;5.412;2022-09-17T11:36:14;7.53;;;1.53;;
61911;SDS011;49973;52.084;5.412;2022-09-17T11:38:47;2.87;;;0.63;;
61911;SDS011;49973;52.084;5.412;2022-09-17T11:41:18;7.27;;;1.30;;
61911;SDS011;49973;52.084;5.412;2022-09-17T11:44:02;2.50;;;1.30;;
61911;SDS011;49973;52.084;5.412;2022-09-17T11:46:36;8.83;;;1.20;;
61911;SDS011;49973;52.084;5.412;2022-09-17T11:49:09;10.83;;;1.10;;
61911;SDS011;49973;52.084;5.412;2022-09-17T11:51:47;4.63;;;1.43;;
61911;SDS011;49973;52.084;5.412;2022-09-17T11:54:22;6.40;;;1.20;;
61911;SDS011;49973;52.084;5.412;2022-09-17T11:56:56;6.53;;;1.40;;
61911;SDS011;49973;52.084;5.412;2022-09-17T11:59:36;8.23;;;1.13;;
61911;SDS011;49973;52.084;5.412;2022-09-17T12:02:13;8.90;;;1.20;;
61911;SDS011;49973;52.084;5.412;2022-09-17T12:04:49;3.07;;;0.70;;
61911;SDS011;49973;52.084;5.412;2022-09-17T12:07:29;3.80;;;0.67;;
61911;SDS011;49973;52.084;5.412;2022-09-17T12:10:10;3.17;;;0.90;;
61911;SDS011;49973;52.084;5.412;2022-09-17T12:12:49;3.73;;;0.97;;
61911;SDS011;49973;52.084;5.412;2022-09-17T12:15:21;8.37;;;1.13;;
61911;SDS011;49973;52.084;5.412;2022-09-17T12:17:53;6.23;;;0.73;;
61911;SDS011;49973;52.084;5.412;2022-09-17T12:20:51;6.60;;;1.30;;
61911;SDS011;49973;52.084;5.412;2022-09-17T12:23:25;3.97;;;1.00;;
61911;SDS011;49973;52.084;5.412;2022-09-17T12:26:02;5.10;;;0.80;;
61911;SDS011;49973;52.084;5.412;2022-09-17T12:28:38;1.30;;;0.53;;
61911;SDS011;49973;52.084;5.412;2022-09-17T12:31:19;6.30;;;0.90;;
61911;SDS011;49973;52.084;5.412;2022-09-17T12:33:58;1.50;;;0.90;;
61911;SDS011;49973;52.084;5.412;2022-09-17T12:36:34;1.97;;;0.57;;
61911;SDS011;49973;52.084;5.412;2022-09-17T12:42:36;3.10;;;0.70;;
61911;SDS011;49973;52.084;5.412;2022-09-17T12:45:20;3.90;;;0.80;;
61911;SDS011;49973;52.084;5.412;2022-09-17T12:48:10;2.03;;;0.63;;
61911;SDS011;49973;52.084;5.412;2022-09-17T12:51:01;5.30;;;1.00;;
61911;SDS011;49973;52.084;5.412;2022-09-17T12:53:38;3.37;;;0.70;;
61911;SDS011;49973;52.084;5.412;2022-09-17T12:56:18;4.90;;;1.10;;
61911;SDS011;49973;52.084;5.412;2022-09-17T12:59:07;5.10;;;1.13;;
61911;SDS011;49973;52.084;5.412;2022-09-17T13:01:43;3.70;;;1.50;;
61911;SDS011;49973;52.084;5.412;2022-09-17T13:04:19;9.03;;;1.53;;
61911;SDS011;49973;52.084;5.412;2022-09-17T13:07:25;7.40;;;1.03;;
61911;SDS011;49973;52.084;5.412;2022-09-17T13:10:11;4.17;;;1.23;;
61911;SDS011;49973;52.084;5.412;2022-09-17T13:13:19;3.33;;;1.00;;
61911;SDS011;49973;52.084;5.412;2022-09-17T13:15:56;9.97;;;0.90;;
61911;SDS011;49973;52.084;5.412;2022-09-17T13:18:42;9.13;;;1.17;;
61911;SDS011;49973;52.084;5.412;2022-09-17T13:21:39;4.17;;;0.93;;
61911;SDS011;49973;52.084;5.412;2022-09-17T13:24:16;7.60;;;1.07;;
61911;SDS011;49973;52.084;5.412;2022-09-17T13:26:46;4.40;;;1.33;;
61911;SDS011;49973;52.084;5.412;2022-09-17T13:38:13;7.93;;;1.10;;
61911;SDS011;49973;52.084;5.412;2022-09-17T13:40:48;4.73;;;1.07;;
61911;SDS011;49973;52.084;5.412;2022-09-17T13:43:18;5.97;;;1.40;;
61911;SDS011;49973;52.084;5.412;2022-09-17T13:46:07;8.33;;;1.43;;
61911;SDS011;49973;52.084;5.412;2022-09-17T13:48:50;6.77;;;1.20;;
61911;SDS011;49973;52.084;5.412;2022-09-17T13:54:21;4.33;;;0.80;;
61911;SDS011;49973;52.084;5.412;2022-09-17T13:57:03;8.53;;;1.33;;
61911;SDS011;49973;52.084;5.412;2022-09-17T13:59:35;5.20;;;1.03;;
61911;SDS011;49973;52.084;5.412;2022-09-17T14:08:10;4.53;;;1.07;;
61911;SDS011;49973;52.084;5.412;2022-09-17T14:10:41;4.00;;;0.80;;
61911;SDS011;49973;52.084;5.412;2022-09-17T14:13:20;3.00;;;1.10;;
61911;SDS011;49973;52.084;5.412;2022-09-17T14:15:57;4.67;;;0.87;;
61911;SDS011;49973;52.084;5.412;2022-09-17T14:18:35;4.20;;;0.87;;
61911;SDS011;49973;52.084;5.412;2022-09-17T14:21:10;8.03;;;1.20;;
61911;SDS011;49973;52.084;5.412;2022-09-17T14:23:48;4.10;;;1.07;;
61911;SDS011;49973;52.084;5.412;2022-09-17T14:26:38;2.90;;;0.87;;
61911;SDS011;49973;52.084;5.412;2022-09-17T14:29:32;8.80;;;1.13;;
61911;SDS011;49973;52.084;5.412;2022-09-17T14:32:15;9.20;;;1.00;;
61911;SDS011;49973;52.084;5.412;2022-09-17T14:34:47;2.53;;;1.17;;
61911;SDS011;49973;52.084;5.412;2022-09-17T14:37:18;4.73;;;0.97;;
61911;SDS011;49973;52.084;5.412;2022-09-17T14:39:48;9.40;;;1.53;;
61911;SDS011;49973;52.084;5.412;2022-09-17T14:42:19;5.33;;;1.43;;
61911;SDS011;49973;52.084;5.412;2022-09-17T14:44:54;5.23;;;1.17;;
61911;SDS011;49973;52.084;5.412;2022-09-17T14:47:25;4.10;;;1.07;;
61911;SDS011;49973;52.084;5.412;2022-09-17T14:49:54;6.47;;;1.23;;
61911;SDS011;49973;52.084;5.412;2022-09-17T14:52:47;8.43;;;0.90;;
61911;SDS011;49973;52.084;5.412;2022-09-17T14:55:18;4.63;;;1.17;;
61911;SDS011;49973;52.084;5.412;2022-09-17T14:57:50;9.50;;;1.37;;
61911;SDS011;49973;52.084;5.412;2022-09-17T15:00:21;7.20;;;1.77;;
61911;SDS011;49973;52.084;5.412;2022-09-17T15:02:52;6.43;;;1.07;;
61911;SDS011;49973;52.084;5.412;2022-09-17T15:05:26;3.27;;;1.07;;
61911;SDS011;49973;52.084;5.412;2022-09-17T15:08:12;8.60;;;1.57;;
61911;SDS011;49973;52.084;5.412;2022-09-17T15:10:50;9.40;;;1.47;;
61911;SDS011;49973;52.084;5.412;2022-09-17T15:13:22;6.70;;;1.93;;
61911;SDS011;49973;52.084;5.412;2022-09-17T15:16:00;7.00;;;1.33;;
61911;SDS011;49973;52.084;5.412;2022-09-17T15:18:40;6.23;;;1.67;;
61911;SDS011;49973;52.084;5.412;2022-09-17T15:21:16;8.50;;;1.40;;
61911;SDS011;49973;52.084;5.412;2022-09-17T15:23:51;3.70;;;0.90;;
61911;SDS011;49973;52.084;5.412;2022-09-17T15:26:25;5.53;;;1.20;;
61911;SDS011;49973;52.084;5.412;2022-09-17T15:28:58;9.03;;;1.30;;
61911;SDS011;49973;52.084;5.412;2022-09-17T15:31:29;11.10;;;1.70;;
61911;SDS011;49973;52.084;5.412;2022-09-17T15:33:58;14.37;;;1.87;;
61911;SDS011;49973;52.084;5.412;2022-09-17T15:36:27;10.87;;;1.30;;
61911;SDS011;49973;52.084;5.412;2022-09-17T15:38:58;5.27;;;2.00;;
61911;SDS011;49973;52.084;5.412;2022-09-17T15:41:28;7.83;;;1.47;;
61911;SDS011;49973;52.084;5.412;2022-09-17T15:44:15;6.03;;;1.43;;
61911;SDS011;49973;52.084;5.412;2022-09-17T15:50:12;1.63;;;0.83;;
61911;SDS011;49973;52.084;5.412;2022-09-17T15:52:42;6.53;;;1.63;;
61911;SDS011;49973;52.084;5.412;2022-09-17T15:55:31;8.40;;;2.03;;
61911;SDS011;49973;52.084;5.412;2022-09-17T15:58:02;6.57;;;1.67;;
61911;SDS011;49973;52.084;5.412;2022-09-17T16:00:32;7.83;;;1.83;;
61911;SDS011;49973;52.084;5.412;2022-09-17T16:03:33;6.03;;;1.70;;